createdAt,value
2023-04-18T00:01:26.355Z,1.20
2023-04-18T00:05:15.437Z,2.13
2023-04-18T00:09:03.046Z,1.90
2023-04-18T00:12:51.080Z,0.93
2023-04-18T00:16:37.612Z,1.13
2023-04-18T00:20:25.551Z,1.23
2023-04-18T00:24:08.065Z,1.20
2023-04-18T00:27:49.845Z,0.80
2023-04-18T00:31:31.711Z,1.27
2023-04-18T00:35:13.538Z,1.47
2023-04-18T00:38:55.419Z,1.00
2023-04-18T00:42:37.189Z,1.73
2023-04-18T00:46:19.059Z,1.70
2023-04-18T00:50:01.034Z,1.03
2023-04-18T00:53:44.223Z,1.10
2023-04-18T00:57:25.985Z,1.13
2023-04-18T01:01:07.964Z,2.17
2023-04-18T01:04:49.776Z,1.20
2023-04-18T01:08:31.782Z,1.30
2023-04-18T01:12:13.581Z,1.20
2023-04-18T01:15:55.759Z,1.10
2023-04-18T01:19:40.516Z,1.73
2023-04-18T01:23:22.386Z,1.37
2023-04-18T01:27:04.453Z,2.00
2023-04-18T01:30:46.257Z,1.27
2023-04-18T01:34:28.068Z,1.10
2023-04-18T01:38:09.828Z,1.33
2023-04-18T01:41:51.571Z,1.53
2023-04-18T01:45:33.299Z,1.40
2023-04-18T01:49:16.029Z,1.10
2023-04-18T01:52:57.847Z,1.70
2023-04-18T01:56:39.582Z,1.50
2023-04-18T02:00:21.760Z,1.73
2023-04-18T02:04:03.557Z,2.00
2023-04-18T02:07:45.594Z,2.00
2023-04-18T02:11:27.360Z,1.70
2023-04-18T02:15:09.646Z,2.40
2023-04-18T02:18:52.441Z,2.60
2023-04-18T02:22:34.175Z,2.97
2023-04-18T02:26:15.908Z,2.03
2023-04-18T02:29:58.367Z,5.23
2023-04-18T02:33:46.522Z,2.27
2023-04-18T02:37:28.278Z,2.27
2023-04-18T02:41:15.000Z,2.67
2023-04-18T02:44:56.981Z,2.23
2023-04-18T02:48:38.756Z,2.73
2023-04-18T02:52:20.561Z,3.20
2023-04-18T02:56:02.658Z,3.20
2023-04-18T02:59:44.371Z,2.70
2023-04-18T03:03:26.160Z,3.13
2023-04-18T03:07:08.043Z,3.03
2023-04-18T03:10:49.800Z,2.53
2023-04-18T03:14:31.556Z,1.97
2023-04-18T03:18:13.662Z,2.93
2023-04-18T03:21:55.803Z,3.30
2023-04-18T03:25:37.849Z,3.33
2023-04-18T03:29:19.651Z,2.60
2023-04-18T03:33:03.007Z,3.10
2023-04-18T03:36:47.662Z,2.90
2023-04-18T03:40:30.346Z,3.03
2023-04-18T03:44:12.575Z,2.63
2023-04-18T03:47:54.678Z,3.17
2023-04-18T03:51:44.228Z,2.67
2023-04-18T03:55:26.549Z,2.20
2023-04-18T03:59:08.350Z,3.60
2023-04-18T04:02:50.381Z,2.47
2023-04-18T04:06:32.454Z,4.23
2023-04-18T04:10:14.201Z,3.73
2023-04-18T04:13:56.066Z,4.13
2023-04-18T04:17:37.838Z,3.30
2023-04-18T04:21:21.119Z,2.63
2023-04-18T04:25:04.535Z,3.27
2023-04-18T04:28:46.657Z,2.90
2023-04-18T04:32:28.547Z,2.80
2023-04-18T04:36:10.378Z,2.63
2023-04-18T04:39:52.408Z,4.20
2023-04-18T04:43:34.865Z,3.60
2023-04-18T04:47:16.667Z,3.40
2023-04-18T04:51:00.649Z,3.10
2023-04-18T04:54:43.415Z,4.03
2023-04-18T04:58:25.250Z,3.40
2023-04-18T05:02:07.194Z,3.43
2023-04-18T05:05:49.083Z,3.90
2023-04-18T05:09:30.821Z,3.20
2023-04-18T05:13:12.577Z,3.30
2023-04-18T05:16:55.724Z,3.87
2023-04-18T05:20:37.555Z,4.03
2023-04-18T05:24:19.429Z,4.50
2023-04-18T05:28:01.725Z,4.43
2023-04-18T05:31:43.486Z,3.73
2023-04-18T05:35:25.393Z,3.73
2023-04-18T05:39:07.161Z,3.77
2023-04-18T05:42:48.909Z,4.60
2023-04-18T05:46:31.105Z,3.60
2023-04-18T05:50:12.867Z,4.73
2023-04-18T05:53:54.816Z,3.90
2023-04-18T05:57:36.798Z,3.40
2023-04-18T06:01:18.763Z,3.73
2023-04-18T06:05:01.530Z,3.90
2023-04-18T06:08:43.496Z,3.50
2023-04-18T06:12:25.443Z,4.60
2023-04-18T06:16:08.286Z,4.37
2023-04-18T06:19:50.050Z,4.27
2023-04-18T06:23:31.859Z,5.17
2023-04-18T06:27:27.787Z,4.83
2023-04-18T06:31:12.779Z,4.63
2023-04-18T06:34:54.552Z,3.50
2023-04-18T06:38:36.308Z,4.50
2023-04-18T06:42:19.159Z,5.47
2023-04-18T06:46:05.332Z,3.70
2023-04-18T06:49:47.329Z,4.10
2023-04-18T06:53:29.117Z,4.53
2023-04-18T06:57:11.242Z,5.27
2023-04-18T07:00:53.204Z,3.03
2023-04-18T07:04:35.016Z,3.43
2023-04-18T07:08:16.791Z,4.33
2023-04-18T07:11:59.512Z,4.17
2023-04-18T07:15:41.853Z,6.23
2023-04-18T07:19:23.598Z,4.03
2023-04-18T07:23:06.228Z,5.67
2023-04-18T07:26:48.055Z,4.23
2023-04-18T07:30:29.852Z,4.37
2023-04-18T07:34:12.281Z,4.83
2023-04-18T07:37:54.300Z,3.80
2023-04-18T07:41:36.125Z,4.03
2023-04-18T07:45:17.915Z,4.00
2023-04-18T07:48:59.874Z,3.70
2023-04-18T07:52:41.633Z,5.13
2023-04-18T07:56:23.451Z,4.93
2023-04-18T08:00:06.444Z,4.43
2023-04-18T08:03:48.414Z,3.77
2023-04-18T08:07:30.504Z,4.23
2023-04-18T08:11:12.284Z,6.17
2023-04-18T08:14:54.015Z,5.20
2023-04-18T08:18:36.238Z,4.87
2023-04-18T08:22:17.972Z,4.13
2023-04-18T08:25:59.806Z,5.20
2023-04-18T08:29:41.536Z,5.93
2023-04-18T08:33:24.296Z,4.27
2023-04-18T08:37:07.244Z,5.33
2023-04-18T08:40:49.004Z,5.93
2023-04-18T08:44:30.764Z,5.33
2023-04-18T08:48:14.347Z,4.97
2023-04-18T08:51:57.987Z,5.47
2023-04-18T08:55:44.960Z,5.03
2023-04-18T08:59:32.757Z,5.10
2023-04-18T09:03:20.103Z,5.67
2023-04-18T09:07:14.017Z,5.00
2023-04-18T09:11:27.640Z,4.90
2023-04-18T09:15:18.247Z,4.93
2023-04-18T09:19:20.641Z,5.00
2023-04-18T09:23:05.559Z,4.87
2023-04-18T09:26:49.840Z,4.60
2023-04-18T09:30:37.858Z,5.37
2023-04-18T09:34:25.096Z,4.80
2023-04-18T09:38:08.725Z,5.03
2023-04-18T09:42:00.793Z,6.70
2023-04-18T09:45:42.863Z,4.83
2023-04-18T09:49:24.650Z,5.87
2023-04-18T09:53:08.059Z,5.03
2023-04-18T09:56:53.385Z,6.03
2023-04-18T10:00:37.247Z,4.17
2023-04-18T10:04:19.210Z,3.97
2023-04-18T10:08:01.266Z,5.27
2023-04-18T10:11:44.207Z,5.40
2023-04-18T10:15:28.668Z,4.87
2023-04-18T10:19:30.024Z,5.40
2023-04-18T10:23:36.930Z,5.27
2023-04-18T10:27:39.494Z,4.70
2023-04-18T10:31:23.728Z,4.73
2023-04-18T10:35:06.430Z,4.40
2023-04-18T10:38:50.650Z,4.63
2023-04-18T10:42:47.775Z,4.30
2023-04-18T10:46:32.855Z,4.80
2023-04-18T10:50:15.691Z,4.80
2023-04-18T10:53:59.621Z,4.80
2023-04-18T10:57:43.662Z,3.93
2023-04-18T11:01:32.485Z,4.80
2023-04-18T11:05:20.214Z,4.35
2023-04-18T11:09:13.432Z,4.00
2023-04-18T11:12:56.174Z,4.60
2023-04-18T11:16:38.716Z,5.50
2023-04-18T11:20:23.577Z,3.73
2023-04-18T11:24:05.603Z,4.13
2023-04-18T11:27:51.234Z,4.90
2023-04-18T11:31:33.005Z,4.30
2023-04-18T11:35:17.860Z,3.90
2023-04-18T11:38:59.665Z,4.23
2023-04-18T11:42:42.088Z,4.97
2023-04-18T11:46:23.904Z,3.83
2023-04-18T11:50:08.067Z,3.57
2023-04-18T11:53:49.811Z,3.73
2023-04-18T11:57:32.949Z,3.73
2023-04-18T12:01:21.512Z,3.23
2023-04-18T12:05:04.582Z,3.53
2023-04-18T12:08:46.611Z,3.77
2023-04-18T12:12:28.434Z,3.27
2023-04-18T12:16:12.295Z,3.27
2023-04-18T12:19:55.516Z,3.33
2023-04-18T12:23:40.347Z,4.43
2023-04-18T12:27:22.250Z,3.00
2023-04-18T12:31:44.456Z,3.50
2023-04-18T12:35:26.981Z,2.43
2023-04-18T12:39:09.506Z,3.67
2023-04-18T12:42:52.343Z,3.00
2023-04-18T12:46:34.221Z,3.03
2023-04-18T12:50:21.805Z,3.07
2023-04-18T12:54:03.737Z,2.53
2023-04-18T12:57:45.778Z,2.47
2023-04-18T13:01:27.884Z,3.03
2023-04-18T13:05:11.912Z,2.80
2023-04-18T13:08:53.800Z,2.83
2023-04-18T13:12:36.071Z,3.97
2023-04-18T13:16:17.900Z,3.33
2023-04-18T13:20:06.309Z,2.53
2023-04-18T13:23:48.095Z,3.00
2023-04-18T13:27:30.078Z,3.37
2023-04-18T13:31:11.790Z,2.70
2023-04-18T13:34:53.603Z,4.10
2023-04-18T13:38:35.494Z,2.90
2023-04-18T13:42:18.559Z,2.63
2023-04-18T13:46:00.528Z,4.07
2023-04-18T13:49:42.394Z,2.63
2023-04-18T13:53:24.192Z,2.40
2023-04-18T13:57:11.434Z,3.97
2023-04-18T14:00:53.835Z,3.10
2023-04-18T14:04:36.185Z,3.07
2023-04-18T14:08:18.006Z,2.97
2023-04-18T14:11:59.885Z,2.60
2023-04-18T14:15:41.638Z,3.30
2023-04-18T14:19:23.429Z,2.37
2023-04-18T14:23:05.204Z,2.50
2023-04-18T14:26:47.916Z,2.43
2023-04-18T14:31:30.554Z,2.40
2023-04-18T14:35:12.425Z,2.33
2023-04-18T14:38:55.198Z,2.77
2023-04-18T14:42:57.154Z,2.43
2023-04-18T14:46:39.080Z,2.47
2023-04-18T14:50:21.268Z,2.63
2023-04-18T14:54:03.141Z,2.97
2023-04-18T14:57:44.925Z,2.37
2023-04-18T15:01:46.983Z,2.27
2023-04-18T15:05:28.810Z,2.10
2023-04-18T15:14:16.903Z,3.20
2023-04-18T15:17:59.071Z,2.47
2023-04-18T15:21:41.046Z,2.37
2023-04-18T15:25:23.058Z,3.33
2023-04-18T15:29:05.025Z,2.30
2023-04-18T15:32:48.398Z,2.03
2023-04-18T15:36:31.750Z,2.37
2023-04-18T15:40:16.225Z,2.70
2023-04-18T15:43:58.222Z,2.10
2023-04-18T15:47:40.744Z,2.60
2023-04-18T15:51:27.398Z,2.47
2023-04-18T15:55:11.732Z,2.03
2023-04-18T15:58:55.714Z,2.20
2023-04-18T16:02:37.554Z,2.47
2023-04-18T16:06:22.355Z,2.20
2023-04-18T16:10:05.131Z,2.57
2023-04-18T16:13:47.150Z,2.10
2023-04-18T16:17:28.930Z,2.00
2023-04-18T16:21:14.439Z,2.70
2023-04-18T16:24:56.322Z,1.80
2023-04-18T16:28:38.110Z,2.33
2023-04-18T16:32:20.306Z,2.23
2023-04-18T16:36:05.276Z,1.87
2023-04-18T16:39:47.413Z,2.40
2023-04-18T16:43:31.133Z,2.00
2023-04-18T16:47:12.996Z,1.93
2023-04-18T16:50:55.476Z,1.83
2023-04-18T16:54:37.315Z,1.80
2023-04-18T16:58:21.143Z,3.07
2023-04-18T17:02:03.251Z,2.10
2023-04-18T17:05:45.583Z,1.97
2023-04-18T17:09:27.504Z,2.30
2023-04-18T17:13:09.232Z,2.03
2023-04-18T17:16:53.291Z,1.60
2023-04-18T17:20:36.772Z,1.90
2023-04-18T17:24:18.836Z,1.70
2023-04-18T17:28:02.285Z,1.77
2023-04-18T17:31:44.231Z,2.17
2023-04-18T17:35:26.135Z,2.20
2023-04-18T17:39:08.235Z,2.37
2023-04-18T17:42:50.007Z,1.60
2023-04-18T17:46:32.669Z,2.33
2023-04-18T17:51:15.174Z,1.97
2023-04-18T17:54:59.724Z,2.07
2023-04-18T17:58:41.457Z,1.93
2023-04-18T18:02:23.791Z,2.07
2023-04-18T18:06:05.843Z,2.07
2023-04-18T18:09:47.647Z,2.73
2023-04-18T18:13:29.476Z,2.40
2023-04-18T18:17:11.575Z,1.63
2023-04-18T18:21:33.814Z,2.27
2023-04-18T18:25:15.613Z,2.00
2023-04-18T18:28:57.452Z,2.87
2023-04-18T18:32:40.605Z,1.47
2023-04-18T18:36:22.405Z,1.43
2023-04-18T18:40:05.042Z,2.37
2023-04-18T18:43:46.770Z,1.70
2023-04-18T18:47:30.516Z,2.17
2023-04-18T18:51:12.375Z,1.67
2023-04-18T18:54:55.101Z,1.93
2023-04-18T18:58:37.271Z,1.83
2023-04-18T19:02:19.401Z,2.10
2023-04-18T19:06:03.938Z,1.57
2023-04-18T19:09:46.682Z,1.90
2023-04-18T19:13:28.461Z,1.93
2023-04-18T19:17:10.392Z,3.40
2023-04-18T19:20:52.336Z,2.33
2023-04-18T19:24:34.977Z,2.20
2023-04-18T19:28:18.425Z,1.77
2023-04-18T19:32:00.471Z,1.70
2023-04-18T19:35:43.144Z,2.43
2023-04-18T19:39:24.858Z,2.13
2023-04-18T19:43:06.634Z,1.67
2023-04-18T19:46:48.422Z,1.93
2023-04-18T19:50:30.446Z,2.20
2023-04-18T19:54:12.353Z,1.73
2023-04-18T19:57:56.629Z,2.53
2023-04-18T20:01:38.438Z,1.80
2023-04-18T20:05:20.365Z,2.03
2023-04-18T20:09:02.506Z,2.67
2023-04-18T20:12:44.282Z,2.83
2023-04-18T20:16:26.077Z,1.53
2023-04-18T20:20:09.259Z,1.80
2023-04-18T20:23:51.161Z,1.70
2023-04-18T20:27:32.937Z,1.97
2023-04-18T20:31:14.997Z,1.90
2023-04-18T20:34:57.317Z,2.27
2023-04-18T20:38:40.170Z,1.80
2023-04-18T20:42:22.639Z,2.37
2023-04-18T20:46:04.493Z,2.07
2023-04-18T20:49:46.434Z,1.90
2023-04-18T20:53:29.127Z,2.13
2023-04-18T20:57:10.956Z,1.53
2023-04-18T21:00:52.684Z,1.77
2023-04-18T21:04:34.466Z,2.37
2023-04-18T21:08:16.513Z,2.40
2023-04-18T21:11:59.285Z,2.10
2023-04-18T21:15:42.688Z,3.10
2023-04-18T21:19:24.991Z,2.40
2023-04-18T21:23:06.788Z,2.47
2023-04-18T21:26:48.688Z,1.90
2023-04-18T21:30:30.719Z,2.40
2023-04-18T21:34:12.654Z,3.00
2023-04-18T21:37:54.448Z,2.37
2023-04-18T21:41:36.338Z,3.50
2023-04-18T21:45:18.399Z,2.20
2023-04-18T21:49:00.377Z,2.47
2023-04-18T21:52:42.120Z,2.10
2023-04-18T21:56:23.959Z,2.07
2023-04-18T22:00:09.253Z,2.47
2023-04-18T22:03:52.302Z,2.00
2023-04-18T22:07:43.222Z,2.23
2023-04-18T22:11:32.276Z,2.80
2023-04-18T22:15:14.098Z,2.07
2023-04-18T22:18:56.073Z,2.60
2023-04-18T22:22:37.826Z,2.77
2023-04-18T22:26:19.568Z,2.97
2023-04-18T22:30:01.423Z,3.33
2023-04-18T22:33:43.270Z,2.30
2023-04-18T22:37:25.239Z,2.20
2023-04-18T22:41:07.891Z,2.20
2023-04-18T22:44:49.630Z,2.10
2023-04-18T22:48:31.399Z,2.53
2023-04-18T22:52:14.194Z,3.47
2023-04-18T22:55:56.015Z,2.07
2023-04-18T22:59:37.766Z,3.17
2023-04-18T23:03:19.719Z,1.77
2023-04-18T23:07:01.651Z,3.07
2023-04-18T23:10:43.559Z,2.27
2023-04-18T23:14:25.294Z,1.73
2023-04-18T23:18:07.162Z,2.07
2023-04-18T23:21:49.682Z,2.23
2023-04-18T23:25:34.576Z,2.17
2023-04-18T23:29:16.406Z,2.23
2023-04-18T23:32:58.253Z,2.40
2023-04-18T23:36:40.548Z,1.73
2023-04-18T23:40:22.759Z,2.33
2023-04-18T23:44:04.778Z,2.57
2023-04-18T23:47:46.630Z,2.37
2023-04-18T23:51:28.455Z,2.77
2023-04-18T23:55:10.802Z,2.47
2023-04-18T23:58:53.899Z,1.40
